Time;durP1;ratioP1;P1;durP2;ratioP2;P2;SDS_P1;SDS_P2;PMS_P1;PMS_P2;Temp;Humidity;BMP_temperature;BMP_pressure;BME280_temperature;BME280_humidity;BME280_pressure;Samples;Min_cycle;Max_cycle;Signal;HPM_P1;HPM_P2
2022/02/20 00:00:41;;;;;;;18.13;10.75;;;;;;;6.46;49.24;94920.88;5070057;28;20578;-68
2022/02/20 00:03:07;;;;;;;17.35;10.00;;;;;;;6.45;48.85;94919.22;5083736;28;20059;-68
2022/02/20 00:05:32;;;;;;;16.70;9.73;;;;;;;6.52;48.45;94924.81;5089109;28;20016;-68
2022/02/20 00:07:58;;;;;;;16.15;9.63;;;;;;;6.43;49.02;94912.50;5091680;28;20119;-67
2022/02/20 00:10:23;;;;;;;19.02;10.25;;;;;;;6.44;48.92;94907.25;5094142;28;20021;-68
2022/02/20 00:12:49;;;;;;;17.80;9.88;;;;;;;6.43;50.63;94922.81;5078543;28;20041;-68
2022/02/20 00:15:14;;;;;;;22.83;10.20;;;;;;;6.40;49.99;94925.59;5072101;28;20036;-68
2022/02/20 00:17:40;;;;;;;19.13;11.23;;;;;;;6.22;49.53;94910.38;5038977;28;20498;-68
2022/02/20 00:20:06;;;;;;;19.20;10.70;;;;;;;6.34;49.53;94918.25;5055653;28;20039;-67
2022/02/20 00:22:31;;;;;;;17.52;9.50;;;;;;;6.37;49.66;94929.19;5072143;28;20521;-69
2022/02/20 00:24:57;;;;;;;20.55;10.05;;;;;;;6.32;49.33;94907.19;5072162;28;20029;-68
2022/02/20 00:27:29;;;;;;;17.63;9.85;;;;;;;6.37;49.31;94893.06;5072123;28;20044;-68
2022/02/20 00:29:54;;;;;;;18.33;9.80;;;;;;;6.38;49.49;94896.47;5056188;28;20483;-68
2022/02/20 00:32:20;;;;;;;22.90;9.85;;;;;;;6.35;50.50;94887.22;5072147;28;20040;-68
2022/02/20 00:34:45;;;;;;;18.27;9.02;;;;;;;6.34;50.14;94884.72;5071921;28;20028;-68
2022/02/20 00:37:11;;;;;;;16.23;9.35;;;;;;;6.30;51.29;94896.19;5072094;28;20056;-68
2022/02/20 00:39:36;;;;;;;16.20;10.18;;;;;;;6.25;49.86;94891.31;5073346;28;20040;-68
2022/02/20 00:42:02;;;;;;;22.33;9.68;;;;;;;6.27;50.01;94889.47;5071873;28;20386;-68
2022/02/20 00:44:28;;;;;;;16.73;9.30;;;;;;;6.28;49.97;94885.13;5073118;28;20028;-68
2022/02/20 00:46:53;;;;;;;16.27;8.57;;;;;;;6.27;49.97;94894.63;5073038;28;20029;-68
2022/02/20 00:49:18;;;;;;;15.07;8.95;;;;;;;6.34;50.72;94895.84;5071765;28;20032;-68
2022/02/20 00:51:44;;;;;;;20.83;9.82;;;;;;;6.32;50.12;94894.31;5072905;28;20032;-68
2022/02/20 00:54:09;;;;;;;27.92;16.23;;;;;;;6.32;50.40;94894.31;5071527;28;20482;-68
2022/02/20 00:56:36;;;;;;;31.42;16.60;;;;;;;6.30;50.80;94903.91;5073063;28;20036;-68
2022/02/20 00:59:02;;;;;;;36.13;16.80;;;;;;;6.29;50.60;94887.59;5055060;28;20028;-68
2022/02/20 01:01:27;;;;;;;20.52;11.15;;;;;;;6.19;49.83;94874.47;5054926;28;20032;-68
2022/02/20 01:03:53;;;;;;;21.38;12.18;;;;;;;6.20;50.05;94878.69;5072738;28;20048;-68
2022/02/20 01:06:19;;;;;;;22.95;13.07;;;;;;;6.24;50.37;94882.75;5071374;28;20028;-68
2022/02/20 01:08:44;;;;;;;22.92;13.30;;;;;;;6.18;50.05;94888.28;5054751;28;20542;-68
2022/02/20 01:11:09;;;;;;;25.90;12.98;;;;;;;6.04;50.26;94883.16;5071411;28;20043;-68
2022/02/20 01:13:35;;;;;;;17.13;9.52;;;;;;;6.08;53.15;94900.13;5071334;28;20036;-68
2022/02/20 01:16:00;;;;;;;18.33;9.80;;;;;;;5.98;52.38;94899.03;5071094;28;20052;-68
2022/02/20 01:18:26;;;;;;;17.85;9.52;;;;;;;5.96;53.07;94916.34;5072157;28;20032;-68
2022/02/20 01:20:51;;;;;;;19.85;10.05;;;;;;;5.87;53.30;94919.50;5070346;28;20489;-68
2022/02/20 01:23:17;;;;;;;19.65;10.35;;;;;;;5.89;52.92;94921.03;5071166;28;20029;-68
2022/02/20 01:25:42;;;;;;;19.95;10.70;;;;;;;5.70;51.59;94911.06;5072506;28;20028;-68
2022/02/20 01:28:07;;;;;;;21.35;10.75;;;;;;;5.73;51.64;94928.91;5072284;28;20051;-68
2022/02/20 01:30:33;;;;;;;21.15;11.63;;;;;;;5.66;52.71;94932.78;5072400;28;20028;-68
2022/02/20 01:32:58;;;;;;;21.45;12.65;;;;;;;5.62;53.05;94928.72;5070985;28;20422;-68
2022/02/20 01:35:24;;;;;;;25.20;12.82;;;;;;;5.62;53.26;94928.72;5070862;28;20043;-68
2022/02/20 01:37:49;;;;;;;19.95;10.60;;;;;;;5.62;53.80;94926.16;5072034;28;20033;-68
2022/02/20 01:40:14;;;;;;;25.90;10.18;;;;;;;5.61;54.51;94916.78;5070823;28;20029;-68
2022/02/20 01:42:40;;;;;;;19.95;11.63;;;;;;;5.44;53.56;94904.13;5070586;28;20045;-67
2022/02/20 01:45:10;;;;;;;22.52;12.38;;;;;;;5.40;53.19;94905.22;5070714;28;20032;-68
2022/02/20 01:47:35;;;;;;;19.52;11.48;;;;;;;5.37;53.70;94899.31;5070639;28;20062;-68
2022/02/20 01:50:01;;;;;;;21.20;11.05;;;;;;;5.32;54.38;94915.97;5070569;28;20032;-68
2022/02/20 01:52:27;;;;;;;18.67;9.95;;;;;;;5.30;55.25;94908.34;5070444;28;20024;-68
2022/02/20 01:54:52;;;;;;;17.90;10.25;;;;;;;5.22;53.30;94905.41;5053952;28;20060;-68
2022/02/20 01:57:18;;;;;;;19.70;10.10;;;;;;;5.22;54.27;94900.25;5070426;28;20498;-67
2022/02/20 01:59:44;;;;;;;17.13;8.85;;;;;;;5.17;53.96;94897.13;5071601;28;20060;-68
2022/02/20 02:02:09;;;;;;;15.63;8.52;;;;;;;5.13;54.96;94890.53;5070293;28;20028;-67
2022/02/20 02:04:38;;;;;;;17.63;8.63;;;;;;;5.13;55.38;94891.34;5071555;28;20028;-68
2022/02/20 02:07:03;;;;;;;15.02;8.45;;;;;;;5.12;56.50;94883.69;5071456;28;20039;-68
2022/02/20 02:09:28;;;;;;;15.85;8.77;;;;;;;5.07;56.44;94875.41;5070213;28;20398;-68
2022/02/20 02:11:54;;;;;;;14.07;8.30;;;;;;;5.12;55.82;94870.81;5077932;28;20497;-68
2022/02/20 02:14:19;;;;;;;15.30;8.30;;;;;;;5.01;54.00;94856.00;5090395;28;20024;-68
2022/02/20 02:16:45;;;;;;;19.38;8.25;;;;;;;5.01;54.61;94875.78;5090103;28;20059;-68
2022/02/20 02:19:10;;;;;;;17.10;8.88;;;;;;;4.96;55.24;94872.66;5090474;28;20039;-68
2022/02/20 02:21:35;;;;;;;14.20;8.30;;;;;;;4.96;55.93;94862.34;5090147;28;20403;-68
2022/02/20 02:24:01;;;;;;;15.50;7.63;;;;;;;4.97;54.70;94858.88;5091494;28;20069;-68
2022/02/20 02:26:27;;;;;;;15.65;8.10;;;;;;;4.90;54.67;94859.25;5090290;28;20405;-68
2022/02/20 02:28:52;;;;;;;16.38;10.05;;;;;;;4.91;56.22;94860.91;5073380;28;20066;-68
2022/02/20 02:31:18;;;;;;;21.73;12.15;;;;;;;4.84;56.51;94861.34;5091451;28;20039;-68
2022/02/20 02:33:46;;;;;;;17.35;9.32;;;;;;;4.77;55.32;94868.63;5090075;28;20027;-67
2022/02/20 02:36:12;;;;;;;16.33;8.48;;;;;;;4.97;54.20;94835.72;5073760;28;20096;-68
2022/02/20 02:38:37;;;;;;;18.50;9.85;;;;;;;5.06;53.73;94819.69;5089947;28;20027;-68
2022/02/20 02:41:05;;;;;;;23.50;9.63;;;;;;;4.99;53.24;94826.16;5073069;28;20035;-68
2022/02/20 02:43:32;;;;;;;19.92;11.18;;;;;;;4.99;53.91;94836.44;5073172;28;20036;-68
2022/02/20 02:45:58;;;;;;;17.40;10.18;;;;;;;5.03;54.17;94825.03;5061043;28;20028;-68
2022/02/20 02:48:23;;;;;;;18.45;9.50;;;;;;;5.12;55.18;94847.63;5089784;28;20108;-68
2022/02/20 02:50:49;;;;;;;13.63;8.65;;;;;;;5.07;54.87;94859.97;5082073;28;20444;-68
2022/02/20 02:53:15;;;;;;;15.50;8.75;;;;;;;5.17;53.96;94863.66;5052967;28;20040;-69
2022/02/20 02:55:47;;;;;;;21.50;10.63;;;;;;;5.24;53.43;94844.34;5068111;28;20028;-68
2022/02/20 02:58:31;;;;;;;32.10;16.58;;;;;;;5.08;54.24;94825.59;5072962;28;20064;-68
2022/02/20 03:00:56;;;;;;;31.48;15.25;;;;;;;5.07;54.39;94831.63;5091234;28;20107;-68
2022/02/20 03:03:22;;;;;;;24.90;13.52;;;;;;;5.05;54.69;94836.06;5089728;28;20077;-68
2022/02/20 03:05:47;;;;;;;24.73;13.55;;;;;;;5.02;54.74;94831.94;5091179;28;20493;-68
2022/02/20 03:08:13;;;;;;;20.42;11.75;;;;;;;5.09;54.71;94848.66;5072961;28;20114;-68
2022/02/20 03:10:38;;;;;;;27.17;13.02;;;;;;;5.07;54.04;94847.09;5091123;28;20032;-68
2022/02/20 03:13:04;;;;;;;21.05;12.38;;;;;;;5.10;54.41;94836.63;5072830;28;20024;-68
2022/02/20 03:15:29;;;;;;;26.13;13.88;;;;;;;5.11;53.84;94825.41;5072453;28;20052;-68
2022/02/20 03:17:55;;;;;;;23.77;13.50;;;;;;;5.05;53.94;94811.16;5089724;28;20032;-68
2022/02/20 03:20:20;;;;;;;23.25;11.52;;;;;;;5.12;54.03;94819.31;5072622;28;20028;-68
2022/02/20 03:22:45;;;;;;;19.95;10.50;;;;;;;5.10;53.88;94813.44;5090671;28;20032;-68
2022/02/20 03:25:11;;;;;;;15.35;8.27;;;;;;;5.23;54.04;94818.66;5090899;28;20028;-68
2022/02/20 03:27:36;;;;;;;16.95;7.95;;;;;;;5.25;53.72;94843.41;5072667;28;20035;-68
2022/02/20 03:30:02;;;;;;;15.38;7.93;;;;;;;5.34;53.38;94829.94;5090807;28;20039;-68
2022/02/20 03:32:28;;;;;;;16.80;8.27;;;;;;;5.39;53.18;94824.50;5089435;28;20085;-68
2022/02/20 03:34:53;;;;;;;15.32;7.88;;;;;;;5.43;53.38;94828.53;5089309;28;20028;-68
2022/02/20 03:37:18;;;;;;;12.55;7.35;;;;;;;5.48;53.29;94833.41;5090718;28;20141;-68
2022/02/20 03:39:44;;;;;;;12.63;8.45;;;;;;;5.47;53.13;94821.47;5079529;28;20375;-68
2022/02/20 03:42:09;;;;;;;15.90;7.95;;;;;;;5.47;52.90;94813.75;5069218;28;20025;-68
2022/02/20 03:44:38;;;;;;;14.25;8.13;;;;;;;5.55;53.12;94803.78;5072978;28;20043;-68
2022/02/20 03:47:03;;;;;;;22.15;11.25;;;;;;;5.52;52.94;94809.13;5074422;28;20032;-68
2022/02/20 03:49:29;;;;;;;27.33;13.60;;;;;;;5.57;52.15;94807.91;5072813;28;20396;-68
2022/02/20 03:51:54;;;;;;;14.52;8.68;;;;;;;5.50;52.79;94805.81;5074249;28;20031;-68
2022/02/20 03:54:20;;;;;;;17.55;8.35;;;;;;;5.55;53.10;94820.06;5072721;28;20025;-68
2022/02/20 03:56:45;;;;;;;34.20;20.23;;;;;;;5.53;52.62;94813.34;5055952;28;20035;-68
2022/02/20 03:59:11;;;;;;;39.97;19.70;;;;;;;5.47;52.54;94824.88;5072671;28;20037;-68
2022/02/20 04:01:36;;;;;;;33.15;18.08;;;;;;;5.38;52.57;94833.19;5073726;28;20043;-69
2022/02/20 04:04:02;;;;;;;32.83;16.80;;;;;;;5.43;52.51;94853.47;5072621;28;20395;-68
2022/02/20 04:06:27;;;;;;;29.90;16.95;;;;;;;5.30;53.45;94861.97;5072367;28;20033;-68
2022/02/20 04:08:52;;;;;;;28.00;15.10;;;;;;;5.35;52.80;94887.47;5055949;28;20032;-68
2022/02/20 04:11:18;;;;;;;24.15;13.57;;;;;;;5.25;53.41;94899.25;5072636;28;20024;-68
2022/02/20 04:13:43;;;;;;;22.25;12.85;;;;;;;5.31;54.60;94914.31;5072439;28;20399;-68
2022/02/20 04:16:09;;;;;;;18.00;9.70;;;;;;;5.27;55.17;94898.22;5072141;28;20438;-68
2022/02/20 04:18:34;;;;;;;19.45;10.27;;;;;;;5.18;54.50;94885.88;5055972;28;20025;-68
2022/02/20 04:21:00;;;;;;;22.45;11.55;;;;;;;5.17;54.87;94902.28;5073395;28;20036;-68
2022/02/20 04:23:30;;;;;;;26.45;16.13;;;;;;;5.19;54.68;94918.47;5073476;28;20028;-67
2022/02/20 04:26:01;;;;;;;27.63;15.37;;;;;;;5.22;55.34;94909.75;5072491;28;20059;-68
2022/02/20 04:28:27;;;;;;;;;;;;;;;5.17;54.74;94920.31;5074160;28;20111;-68
2022/02/20 04:30:52;;;;;;;27.27;13.48;;;;;;;5.09;55.78;94930.22;5055753;28;20345;-68
2022/02/20 04:33:18;;;;;;;25.65;13.43;;;;;;;5.07;54.86;94935.50;5073380;28;20031;-68
2022/02/20 04:35:43;;;;;;;24.30;13.85;;;;;;;5.12;54.47;94948.06;5073505;28;20028;-68
2022/02/20 04:38:08;;;;;;;23.23;13.30;;;;;;;5.13;54.95;94953.16;5071964;28;20487;-68
2022/02/20 04:40:34;;;;;;;20.13;10.13;;;;;;;5.12;57.43;94960.94;5091394;28;20020;-68
2022/02/20 04:42:59;;;;;;;18.10;10.10;;;;;;;5.12;57.24;94960.94;5092232;28;20028;-68
2022/02/20 04:45:25;;;;;;;19.95;9.07;;;;;;;5.08;57.78;94965.47;5092147;28;20032;-68
2022/02/20 04:47:50;;;;;;;16.70;8.73;;;;;;;5.08;57.49;94972.38;5092412;28;20093;-68
2022/02/20 04:50:16;;;;;;;13.77;8.05;;;;;;;5.11;57.54;94969.59;5092055;28;20414;-67
2022/02/20 04:52:41;;;;;;;15.23;8.32;;;;;;;5.13;57.53;94980.66;5093159;28;20028;-68
2022/02/20 04:55:07;;;;;;;14.10;7.60;;;;;;;5.14;57.47;94980.53;5093089;28;20024;-68
2022/02/20 04:57:33;;;;;;;17.92;8.68;;;;;;;5.10;56.85;94978.25;5091835;28;20042;-69
2022/02/20 04:59:59;;;;;;;17.45;8.90;;;;;;;5.19;55.43;94982.88;5091791;28;20028;-68
2022/02/20 05:02:24;;;;;;;18.15;8.88;;;;;;;5.19;56.58;94977.72;5092967;28;20032;-68
2022/02/20 05:04:50;;;;;;;17.30;9.02;;;;;;;5.13;55.58;94958.28;5093045;28;20031;-68
2022/02/20 05:07:15;;;;;;;14.20;8.80;;;;;;;5.21;55.60;94952.69;5091754;28;20127;-68
2022/02/20 05:09:41;;;;;;;16.17;8.35;;;;;;;5.24;55.99;94960.25;5091571;28;20050;-68
2022/02/20 05:12:07;;;;;;;13.23;7.53;;;;;;;5.26;56.66;94950.66;5074839;28;20092;-68
2022/02/20 05:14:33;;;;;;;16.42;8.70;;;;;;;5.26;57.26;94957.56;5091476;28;20035;-68
2022/02/20 05:16:58;;;;;;;18.30;8.82;;;;;;;5.29;56.80;94953.06;5092731;28;20563;-68
2022/02/20 05:19:23;;;;;;;17.05;9.43;;;;;;;5.29;57.13;94935.03;5092740;28;20028;-67
2022/02/20 05:21:49;;;;;;;17.13;8.90;;;;;;;5.29;56.27;94939.34;5092567;28;20031;-68
2022/02/20 05:24:15;;;;;;;20.40;11.68;;;;;;;5.26;56.79;94950.66;5083975;28;20502;-68
2022/02/20 05:26:40;;;;;;;15.98;9.43;;;;;;;5.30;56.43;94947.00;5082466;28;20094;-68
2022/02/20 05:29:06;;;;;;;20.05;9.55;;;;;;;5.33;56.07;94964.00;5052058;28;20238;-67
2022/02/20 05:31:31;;;;;;;20.92;9.57;;;;;;;5.26;55.22;94944.69;5068580;28;20032;-68
2022/02/20 05:33:57;;;;;;;19.38;10.00;;;;;;;5.33;55.09;94957.09;5088752;28;20036;-68
2022/02/20 05:36:24;;;;;;;17.58;8.35;;;;;;;5.41;56.38;94984.16;5070687;28;20036;-68
2022/02/20 05:38:49;;;;;;;18.20;9.65;;;;;;;5.43;56.54;94987.47;5088865;28;20030;-67
2022/02/20 05:41:15;;;;;;;16.88;8.48;;;;;;;5.46;56.51;94995.00;5087751;28;20119;-66
2022/02/20 05:43:40;;;;;;;16.60;8.38;;;;;;;5.39;55.40;94981.69;5090187;28;20043;-66
2022/02/20 05:46:06;;;;;;;16.35;9.10;;;;;;;5.48;55.15;94990.59;5088746;28;20028;-67
2022/02/20 05:48:31;;;;;;;19.88;8.93;;;;;;;5.51;55.20;94987.84;5089589;28;20089;-67
2022/02/20 05:50:57;;;;;;;17.45;8.70;;;;;;;5.55;55.05;94989.31;5089540;28;20028;-67
2022/02/20 05:53:22;;;;;;;18.25;9.13;;;;;;;5.58;55.63;94986.56;5087446;28;20520;-67
2022/02/20 05:55:48;;;;;;;18.75;8.98;;;;;;;5.53;56.95;94970.53;5081379;28;20024;-67
2022/02/20 05:58:13;;;;;;;15.80;8.93;;;;;;;5.55;56.57;94972.09;5085316;28;20101;-67
2022/02/20 06:00:39;;;;;;;18.58;9.40;;;;;;;5.57;56.09;94990.88;5076476;28;20071;-68
2022/02/20 06:03:04;;;;;;;21.70;9.82;;;;;;;5.53;57.82;94994.56;5069068;28;20048;-68
2022/02/20 06:05:30;;;;;;;24.30;13.38;;;;;;;5.52;57.16;94995.50;5083995;28;20028;-69
2022/02/20 06:07:55;;;;;;;64.93;33.03;;;;;;;5.53;56.81;95001.47;5059165;28;20028;-71
2022/02/20 06:10:20;;;;;;;32.08;16.40;;;;;;;5.55;57.30;95004.78;5080467;28;20096;-67
2022/02/20 06:12:46;;;;;;;17.05;9.50;;;;;;;5.50;57.96;94999.06;5088398;28;20097;-67
2022/02/20 06:15:12;;;;;;;23.58;12.35;;;;;;;5.55;57.01;94981.59;5087626;28;20473;-68
2022/02/20 06:17:37;;;;;;;24.25;11.90;;;;;;;5.55;58.03;94971.28;5068481;28;20105;-67
2022/02/20 06:20:03;;;;;;;25.77;13.07;;;;;;;5.60;57.19;94971.84;5070430;28;20200;-67
2022/02/20 06:22:29;;;;;;;22.17;12.55;;;;;;;5.63;57.20;94970.78;5086743;28;20135;-67
2022/02/20 06:24:54;;;;;;;22.98;12.23;;;;;;;5.62;57.35;94951.94;5090344;28;20478;-69
2022/02/20 06:27:19;;;;;;;21.95;11.32;;;;;;;5.69;55.94;94945.50;5090297;28;20024;-67
2022/02/20 06:29:45;;;;;;;16.95;9.98;;;;;;;5.74;54.78;94958.06;5091044;28;20085;-70
2022/02/20 06:32:10;;;;;;;23.00;12.10;;;;;;;5.83;56.27;94965.25;5089848;28;20028;-68
2022/02/20 06:34:36;;;;;;;22.80;11.35;;;;;;;5.88;57.27;94970.13;5089820;28;20096;-66
2022/02/20 06:37:03;;;;;;;15.98;8.10;;;;;;;5.90;53.83;94960.53;5073041;28;20024;-67
2022/02/20 06:39:28;;;;;;;15.48;8.45;;;;;;;6.00;53.77;94967.66;5060585;28;20039;-66
2022/02/20 06:41:53;;;;;;;22.20;10.57;;;;;;;6.07;53.37;94962.09;5083406;28;20032;-66
2022/02/20 06:44:19;;;;;;;19.88;10.15;;;;;;;6.07;53.39;94957.78;5085168;28;20039;-68
2022/02/20 06:46:44;;;;;;;18.25;9.15;;;;;;;6.08;54.80;94962.03;5071297;28;20496;-68
2022/02/20 06:49:10;;;;;;;16.25;8.45;;;;;;;6.13;55.11;94974.59;5089514;28;20505;-68
2022/02/20 06:51:35;;;;;;;14.00;7.95;;;;;;;6.16;56.65;94969.28;5086829;28;20035;-68
2022/02/20 06:54:01;;;;;;;16.88;8.85;;;;;;;6.18;56.77;94973.41;5090869;28;20114;-67
2022/02/20 06:56:27;;;;;;;16.48;8.60;;;;;;;6.24;56.74;94974.75;5073031;28;20081;-69
2022/02/20 06:58:52;;;;;;;22.33;9.38;;;;;;;6.33;55.67;94970.81;5083541;28;20036;-67
2022/02/20 07:01:17;;;;;;;17.73;8.35;;;;;;;6.34;54.51;94965.53;5088455;28;20028;-68
2022/02/20 07:03:43;;;;;;;15.23;8.10;;;;;;;6.37;55.86;94957.59;5065665;28;20486;-68
2022/02/20 07:06:09;;;;;;;14.90;8.07;;;;;;;6.48;55.84;94980.13;5069834;28;20028;-67
2022/02/20 07:08:35;;;;;;;19.45;8.48;;;;;;;6.55;55.01;94972.84;5072032;28;20082;-69
2022/02/20 07:11:00;;;;;;;14.93;8.35;;;;;;;6.66;52.85;94975.56;5063109;28;20039;-67
2022/02/20 07:13:26;;;;;;;16.38;7.95;;;;;;;6.74;52.42;94977.63;5069438;28;20035;-68
2022/02/20 07:15:51;;;;;;;19.55;8.95;;;;;;;6.75;52.08;94971.53;5078555;28;20036;-68
2022/02/20 07:18:16;;;;;;;21.00;10.27;;;;;;;6.83;52.59;94972.69;5088491;28;20044;-67
2022/02/20 07:20:42;;;;;;;32.28;16.55;;;;;;;6.92;52.70;94974.66;5087259;28;20050;-70
2022/02/20 07:23:08;;;;;;;45.03;22.60;;;;;;;6.92;52.94;94966.09;5059730;28;20036;-69
2022/02/20 07:25:34;;;;;;;63.25;28.15;;;;;;;6.99;53.91;94966.50;5076872;28;20028;-67
2022/02/20 07:27:59;;;;;;;66.40;30.50;;;;;;;7.12;53.02;94960.41;5076098;28;20035;-70
2022/02/20 07:30:28;;;;;;;74.43;33.35;;;;;;;7.12;53.21;94946.69;5089423;28;20032;-69
2022/02/20 07:32:56;;;;;;;73.50;30.75;;;;;;;7.11;53.46;94930.34;5093145;28;20044;-69
2022/02/20 07:35:22;;;;;;;66.15;34.67;;;;;;;7.16;54.59;94937.81;5067498;28;20040;-72
2022/02/20 07:37:47;;;;;;;83.80;39.58;;;;;;;7.21;54.33;94943.47;5093067;28;20490;-69
2022/02/20 07:40:13;;;;;;;82.80;41.17;;;;;;;7.26;53.92;94931.06;5087773;28;20514;-69
2022/02/20 07:42:38;;;;;;;78.07;39.65;;;;;;;7.28;53.82;94928.41;5087715;28;20081;-70
2022/02/20 07:45:05;;;;;;;57.33;32.00;;;;;;;7.24;53.90;94935.50;5080100;28;20028;-69
2022/02/20 07:47:31;;;;;;;52.35;29.48;;;;;;;7.32;54.08;94943.56;5085757;28;20082;-69
2022/02/20 07:49:56;;;;;;;52.15;27.48;;;;;;;7.35;53.98;94940.81;5084515;28;20028;-70
2022/02/20 07:52:22;;;;;;;54.08;28.42;;;;;;;7.35;54.08;94945.13;5092648;28;20478;-69
2022/02/20 07:54:47;;;;;;;53.97;27.08;;;;;;;7.40;54.43;94958.56;5092661;28;20046;-68
2022/02/20 07:57:13;;;;;;;47.30;25.65;;;;;;;7.43;54.43;94962.69;5087251;28;20034;-72
2022/02/20 07:59:38;;;;;;;63.55;31.67;;;;;;;7.51;54.54;94957.84;5045578;28;20025;-69
2022/02/20 08:02:04;;;;;;;67.50;35.65;;;;;;;7.54;55.19;94952.44;5085379;28;20028;-69
2022/02/20 08:04:29;;;;;;;63.28;34.08;;;;;;;7.51;55.97;94942.31;5073939;28;20043;-71
2022/02/20 08:06:55;;;;;;;64.43;34.60;;;;;;;7.41;56.45;94934.38;5073637;28;20032;-73
2022/02/20 08:09:20;;;;;;;60.53;33.38;;;;;;;7.33;57.04;94924.56;5092696;28;20112;-69
2022/02/20 08:11:45;;;;;;;61.25;32.60;;;;;;;7.37;56.88;94914.84;5082460;28;20541;-70
2022/02/20 08:14:11;;;;;;;59.15;31.90;;;;;;;7.45;56.74;94897.03;5055526;28;20028;-67
2022/02/20 08:16:36;;;;;;;60.78;31.85;;;;;;;7.58;56.52;94900.44;5073461;28;20032;-72
2022/02/20 08:19:02;;;;;;;59.38;33.72;;;;;;;7.69;55.60;94902.28;5040137;28;20025;-72
2022/02/20 08:21:28;;;;;;;59.65;34.35;;;;;;;7.81;55.54;94903.16;5084070;28;20054;-68
2022/02/20 08:23:53;;;;;;;65.07;34.95;;;;;;;7.90;55.40;94912.84;5076763;28;20032;-69
2022/02/20 08:26:19;;;;;;;65.30;34.58;;;;;;;7.97;55.26;94916.69;5059815;28;20028;-67
2022/02/20 08:28:44;;;;;;;58.60;34.17;;;;;;;8.01;55.12;94915.50;5093023;28;20031;-67
2022/02/20 08:31:09;;;;;;;58.92;33.58;;;;;;;8.07;54.94;94922.81;5091866;28;20028;-68
2022/02/20 08:33:35;;;;;;;55.83;30.38;;;;;;;8.04;54.36;94904.13;5092560;28;20040;-69
2022/02/20 08:36:01;;;;;;;54.38;29.92;;;;;;;8.20;54.14;94915.03;5055907;28;20044;-66
2022/02/20 08:38:27;;;;;;;49.90;26.15;;;;;;;8.29;52.36;94908.38;5074423;28;20035;-68
2022/02/20 08:40:53;;;;;;;44.58;25.73;;;;;;;8.25;51.81;94901.78;5064357;28;20032;-67
2022/02/20 08:43:20;;;;;;;42.08;24.75;;;;;;;8.25;52.00;94879.31;5087913;28;20118;-68
2022/02/20 08:45:48;;;;;;;52.45;27.55;;;;;;;8.46;52.10;94892.44;5088152;28;20036;-67
2022/02/20 08:48:13;;;;;;;49.00;26.75;;;;;;;8.55;51.51;94888.38;5068192;28;20040;-68
2022/02/20 08:50:39;;;;;;;58.78;26.88;;;;;;;8.65;51.10;94884.16;5084396;28;20040;-68
2022/02/20 08:53:05;;;;;;;52.03;26.48;;;;;;;8.74;50.45;94880.06;5088330;28;20035;-66
2022/02/20 08:55:30;;;;;;;49.45;25.02;;;;;;;8.79;49.96;94877.13;5088154;28;20044;-68
2022/02/20 08:57:56;;;;;;;53.58;28.80;;;;;;;8.80;50.18;94871.81;5089659;28;20500;-66
2022/02/20 09:00:21;;;;;;;48.55;25.02;;;;;;;8.92;49.85;94877.88;5083049;28;20039;-67
2022/02/20 09:02:46;;;;;;;51.13;30.58;;;;;;;8.98;49.31;94879.19;5084438;28;20036;-68
2022/02/20 09:05:13;;;;;;;52.92;30.48;;;;;;;9.09;49.25;94886.97;5085710;28;20020;-67
2022/02/20 09:07:38;;;;;;;59.83;31.38;;;;;;;9.13;48.41;94878.81;5070869;28;20043;-69
2022/02/20 09:10:06;;;;;;;54.67;31.58;;;;;;;9.24;48.28;94872.81;5068712;28;20081;-68
2022/02/20 09:12:32;;;;;;;49.40;27.08;;;;;;;9.27;48.59;94876.94;5051290;28;20516;-68
2022/02/20 09:14:57;;;;;;;60.30;32.95;;;;;;;9.27;48.77;94867.41;5086450;28;20036;-68
2022/02/20 09:17:23;;;;;;;60.63;33.33;;;;;;;9.30;48.63;94869.75;5051332;28;20028;-68
2022/02/20 09:19:48;;;;;;;69.03;31.27;;;;;;;9.35;48.35;94879.78;5087322;28;20494;-67
2022/02/20 09:22:14;;;;;;;63.10;29.17;;;;;;;9.38;48.39;94880.38;5090721;28;20358;-68
2022/02/20 09:24:39;;;;;;;46.78;27.65;;;;;;;9.46;48.84;94889.34;5067172;28;20046;-68
2022/02/20 09:27:05;;;;;;;45.20;25.77;;;;;;;9.49;48.38;94884.72;5087244;28;20028;-69
2022/02/20 09:29:33;;;;;;;40.60;25.20;;;;;;;9.52;48.39;94888.84;5070366;28;20488;-68
2022/02/20 09:32:00;;;;;;;43.40;24.75;;;;;;;9.47;47.85;94888.38;5072853;28;20024;-68
2022/02/20 09:34:25;;;;;;;44.50;26.40;;;;;;;9.51;47.73;94892.41;5084407;28;20520;-68
2022/02/20 09:36:51;;;;;;;46.53;25.02;;;;;;;9.53;47.60;94887.94;5088870;28;20431;-68
2022/02/20 09:39:16;;;;;;;47.03;26.02;;;;;;;9.53;48.46;94882.75;5091600;28;20035;-68
2022/02/20 09:41:42;;;;;;;47.10;25.83;;;;;;;9.63;48.08;94894.03;5078980;28;20043;-68
2022/02/20 09:44:07;;;;;;;48.72;26.83;;;;;;;9.57;48.13;94884.97;5070239;28;20464;-68
2022/02/20 09:46:32;;;;;;;49.95;27.20;;;;;;;9.56;47.88;94880.72;5079985;28;20428;-67
2022/02/20 09:48:58;;;;;;;45.55;25.50;;;;;;;9.60;47.56;94887.31;5054583;28;20032;-66
2022/02/20 09:51:24;;;;;;;45.10;23.85;;;;;;;9.60;47.49;94879.53;5058929;28;20027;-69
2022/02/20 09:53:51;;;;;;;50.58;29.02;;;;;;;9.64;47.75;94869.75;5054783;28;20420;-68
2022/02/20 09:56:16;;;;;;;40.35;24.40;;;;;;;9.67;48.04;94864.34;5050445;28;20039;-68
2022/02/20 09:58:42;;;;;;;45.95;26.40;;;;;;;9.73;48.00;94869.03;5070185;28;20032;-68
2022/02/20 10:01:09;;;;;;;44.42;26.35;;;;;;;9.81;48.05;94865.84;5059708;28;20027;-67
2022/02/20 10:03:39;;;;;;;45.97;27.95;;;;;;;9.81;47.46;94871.84;5065098;28;20040;-67
2022/02/20 10:06:08;;;;;;;44.45;27.80;;;;;;;9.78;47.40;94874.69;5076038;28;20027;-68
2022/02/20 10:08:48;;;;;;;47.03;28.10;;;;;;;9.82;47.48;94847.53;5091453;28;20119;-68
2022/02/20 10:11:23;;;;;;;46.08;26.08;;;;;;;9.91;47.07;94858.13;5090341;28;20411;-68
2022/02/20 10:14:12;;;;;;;44.60;27.30;;;;;;;9.91;47.04;94860.75;5073774;28;20414;-71
2022/02/20 10:16:37;;;;;;;55.50;30.80;;;;;;;9.95;47.61;94852.59;5085237;28;20577;-67
2022/02/20 10:19:03;;;;;;;49.85;28.40;;;;;;;10.00;46.78;94860.00;5073096;28;20036;-67
2022/02/20 10:21:30;;;;;;;48.30;26.50;;;;;;;9.97;46.90;94858.50;5088675;28;20024;-67
2022/02/20 10:24:04;;;;;;;52.13;29.13;;;;;;;9.94;47.15;94852.72;5087809;28;20043;-67
2022/02/20 10:26:29;;;;;;;49.25;28.15;;;;;;;10.01;47.80;94848.69;5084273;28;20115;-67
2022/02/20 10:29:02;;;;;;;46.47;27.55;;;;;;;10.11;46.58;94841.78;5053283;28;20468;-67
2022/02/20 10:31:48;;;;;;;50.83;28.75;;;;;;;10.11;46.58;94840.97;5080128;28;20028;-67
2022/02/20 10:34:20;;;;;;;47.88;27.95;;;;;;;10.13;47.23;94839.91;5067557;28;20100;-67
2022/02/20 10:37:02;;;;;;;45.58;27.67;;;;;;;10.15;46.61;94838.03;5071163;28;20048;-68
2022/02/20 10:39:31;;;;;;;;;;;;;;;10.26;46.73;94835.38;5071662;28;20131;-71
2022/02/20 10:41:58;;;;;;;46.95;26.65;;;;;;;10.38;46.27;94832.75;5072343;28;20455;-73
2022/02/20 10:44:23;;;;;;;44.10;27.60;;;;;;;10.40;46.10;94817.88;5070078;28;20108;-72
2022/02/20 10:47:05;;;;;;;46.83;28.40;;;;;;;10.50;46.71;94814.41;5089700;28;20504;-72
2022/02/20 10:49:31;;;;;;;49.42;28.50;;;;;;;10.52;45.98;94796.91;5089845;28;20107;-72
2022/02/20 10:51:56;;;;;;;52.95;29.95;;;;;;;10.66;46.08;94794.94;5089388;28;20403;-72
2022/02/20 10:54:22;;;;;;;48.33;28.63;;;;;;;10.81;45.86;94795.41;5089919;28;20414;-72
2022/02/20 10:56:47;;;;;;;49.13;26.67;;;;;;;10.91;44.98;94791.09;5067020;28;20037;-72
2022/02/20 10:59:13;;;;;;;43.92;25.70;;;;;;;10.95;44.66;94785.53;5061577;28;20093;-72
2022/02/20 11:01:38;;;;;;;47.78;25.70;;;;;;;11.03;44.42;94782.28;5035960;28;20068;-73
2022/02/20 11:04:06;;;;;;;48.78;25.90;;;;;;;10.99;44.57;94780.06;5061203;28;20029;-74
2022/02/20 11:06:32;;;;;;;36.15;24.42;;;;;;;10.97;44.92;94777.59;5056867;28;20039;-69
2022/02/20 11:08:58;;;;;;;46.55;25.38;;;;;;;10.99;45.61;94769.66;5071280;28;20024;-69
2022/02/20 11:11:39;;;;;;;46.25;25.13;;;;;;;11.03;45.52;94763.25;5071080;28;20437;-69
2022/02/20 11:14:10;;;;;;;44.75;28.25;;;;;;;11.06;46.04;94748.22;5079196;28;20043;-69
2022/02/20 11:16:44;;;;;;;49.63;29.33;;;;;;;11.10;45.70;94752.19;5080839;28;20072;-69
2022/02/20 11:19:10;;;;;;;50.97;32.55;;;;;;;11.11;45.96;94748.63;5089613;28;20032;-70
2022/02/20 11:21:39;;;;;;;50.58;32.53;;;;;;;11.05;46.05;94751.75;5055862;28;20032;-69